Nyk Meteor — 3ENA9 — position and weather

sailwx.info

Track history (hours):
 
Tides and Currents Weather Stations Pressure Air Temp Water Temp Dewpoint Dewpoint Depression Visibility Wind Speed Wind Dir Waves Ship Positions

Nyk Meteor

Last reported at 2018-Jul-09 15:34 UTC. Time now 2018-Jul-16 14:41 UTC.
Position N 26°33' W 114°50'.

Length 294 m; draft 11 m.

Type: Cargo ship. MMSI: 354212000.

Date/timePositionNaut miles runAvg speedWind from/ knotsBaromVisibWave heightAir tempDewpointWater temp
2018-Jul-09 15:34N 26°33' W 114°50'218.1
2018-Jul-09 15:29N 26°35' W 114°50'1517.9
2018-Jul-09 14:40N 26°47' W 114°59'318.2
2018-Jul-09 14:30N 26°50' W 115°01'918.3
2018-Jul-09 14:00N 26°58' W 115°07'918.1
2018-Jul-09 13:29N 27°05' W 115°13'1518.0
2018-Jul-09 12:40N 27°17' W 115°22'1418.9
2018-Jul-09 11:55N 27°29' W 115°30'717.5
2018-Jul-09 11:30N 27°35' W 115°35'5617.4
2018-Jul-09 08:18N 28°24' W 116°07'517.7
2018-Jul-09 08:00N 28°28' W 116°09'917.8
2018-Jul-09 07:28N 28°37' W 116°14'1017.9
2018-Jul-09 06:55N 28°46' W 116°19'718.1
2018-Jul-09 06:30N 28°52' W 116°23'918.3
2018-Jul-09 06:00N 29°01' W 116°27'918.5
2018-Jul-09 05:30N 29°09' W 116°32'918.8
2018-Jul-09 05:00N 29°18' W 116°36'1018.7
2018-Jul-09 04:30N 29°26' W 116°41'918.7
2018-Jul-09 04:00N 29°35' W 116°44'1218.5
2018-Jul-09 03:19N 29°47' W 116°48'718.4
2018-Jul-09 02:55N 29°54' W 116°51'818.4
2018-Jul-09 02:30N 30°01' W 116°53'1118.4
2018-Jul-09 01:56N 30°11' W 116°57'818.2
2018-Jul-09 01:30N 30°19' W 117°00'917.9
2018-Jul-09 00:59N 30°28' W 117°03'917.8
2018-Jul-09 00:30N 30°36' W 117°06'917.8
2018-Jul-09 00:01N 30°44' W 117°09'917.8
2018-Jul-08 23:31N 30°53' W 117°13'917.6
2018-Jul-08 23:00N 31°01' W 117°16'917.8
2018-Jul-08 22:30N 31°10' W 117°19'917.7
2018-Jul-08 22:01N 31°18' W 117°21'917.9
2018-Jul-08 21:30N 31°27' W 117°24'917.8
2018-Jul-08 21:01N 31°35' W 117°28'917.8
2018-Jul-08 20:30N 31°44' W 117°31'917.9
2018-Jul-08 20:01N 31°52' W 117°34'917.9
2018-Jul-08 19:30N 32°01' W 117°37'917.6
2018-Jul-08 19:00N 32°09' W 117°41'917.4
2018-Jul-08 18:30N 32°17' W 117°44'917.8
2018-Jul-08 18:00N 32°26' W 117°47'917.8
2018-Jul-08 17:30N 32°34' W 117°51'817.0
2018-Jul-08 17:00N 32°42' W 117°54'917.0
2018-Jul-08 16:30N 32°50' W 117°56'917.7
2018-Jul-08 16:00N 32°59' W 117°59'713.5
2018-Jul-08 15:30N 33°06' W 118°01'611.9
2018-Jul-08 15:00N 33°11' W 118°03'611.6
2018-Jul-08 14:31N 33°17' W 118°05'611.7
2018-Jul-08 14:00N 33°22' W 118°08'611.9
2018-Jul-08 13:31N 33°28' W 118°10'611.7
2018-Jul-08 13:01N 33°33' W 118°12'510.3
2018-Jul-08 12:31N 33°38' W 118°14'4 8.4
2018-Jul-08 12:00N 33°42' W 118°15'3 5.5
2018-Jul-08 11:31N 33°45' W 118°16'1 1.8
2018-Jul-08 11:01N 33°46' W 118°17'0 0.0
2018-Jul-08 10:28N 33°46' W 118°17'0 0.0
2018-Jul-08 09:58N 33°46' W 118°17'0 0.0
2018-Jul-08 09:28N 33°46' W 118°17'0 0.0
2018-Jul-08 08:58N 33°46' W 118°17'0 0.0
2018-Jul-08 08:28N 33°46' W 118°17'0 0.0
2018-Jul-08 07:58N 33°46' W 118°17'0 0.0
2018-Jul-08 07:28N 33°46' W 118°17'0 0.0
2018-Jul-08 06:58N 33°46' W 118°17'0 0.0
2018-Jul-08 06:28N 33°46' W 118°17'0 0.0
2018-Jul-08 05:58N 33°46' W 118°17'0 0.0
2018-Jul-08 05:28N 33°46' W 118°17'0 0.0
2018-Jul-08 04:58N 33°46' W 118°17'0 0.0
2018-Jul-08 04:28N 33°46' W 118°17'0 0.0
2018-Jul-08 03:55N 33°46' W 118°17'0 0.0
2018-Jul-08 03:28N 33°46' W 118°17'0 0.0
2018-Jul-08 02:58N 33°46' W 118°17'0 0.0
2018-Jul-08 02:28N 33°46' W 118°17'0 0.0
2018-Jul-08 01:58N 33°46' W 118°17'0 0.0
2018-Jul-08 01:28N 33°46' W 118°17'0 0.0
2018-Jul-08 00:58N 33°46' W 118°17'0 0.0
2018-Jul-08 00:28N 33°46' W 118°17'0 0.0
2018-Jul-07 23:58N 33°46' W 118°17'0 0.0
2018-Jul-07 23:28N 33°46' W 118°17'0 0.0
2018-Jul-07 22:58N 33°46' W 118°17'0 0.0
2018-Jul-07 22:28N 33°46' W 118°17'0 0.0
2018-Jul-07 21:58N 33°46' W 118°17'0 0.0
2018-Jul-07 21:28N 33°46' W 118°17'0 0.0
2018-Jul-07 20:58N 33°46' W 118°17'0 0.0
2018-Jul-07 20:28N 33°46' W 118°17'0 0.0
2018-Jul-07 19:58N 33°46' W 118°17'0 0.0
2018-Jul-07 19:28N 33°46' W 118°17'0 0.0
2018-Jul-07 18:58N 33°46' W 118°17'0 0.0
2018-Jul-07 18:28N 33°46' W 118°17'0 0.0
2018-Jul-07 17:58N 33°46' W 118°17'0 0.0
2018-Jul-07 17:28N 33°46' W 118°17'0 0.0
2018-Jul-07 16:58N 33°46' W 118°17'0 0.0
2018-Jul-07 16:28N 33°46' W 118°17'0 0.0
2018-Jul-07 15:58N 33°46' W 118°17'0 0.0
2018-Jul-07 15:28N 33°46' W 118°17'0 0.0
2018-Jul-07 14:58N 33°46' W 118°17'0 0.0
2018-Jul-07 14:28N 33°46' W 118°17'0 0.0
2018-Jul-07 13:58N 33°46' W 118°17'0 0.0
2018-Jul-07 13:28N 33°46' W 118°17'0 0.0
2018-Jul-07 12:58N 33°46' W 118°17'0 0.0
2018-Jul-07 12:28N 33°46' W 118°17'0 0.0
2018-Jul-07 11:58N 33°46' W 118°17'0 0.0
2018-Jul-07 11:28N 33°46' W 118°17'0 0.0
2018-Jul-07 10:58N 33°46' W 118°17'0 0.0
2018-Jul-07 10:28N 33°46' W 118°17'0 0.0
2018-Jul-07 09:58N 33°46' W 118°17'0 0.0
2018-Jul-07 09:28N 33°46' W 118°17'0 0.0
2018-Jul-07 08:58N 33°46' W 118°17'0 0.0
2018-Jul-07 08:28N 33°46' W 118°17'0 0.0
2018-Jul-07 07:58N 33°46' W 118°17'0 0.0
2018-Jul-07 07:28N 33°46' W 118°17'0 0.0
2018-Jul-07 06:58N 33°46' W 118°17'0 0.0
2018-Jul-07 06:28N 33°46' W 118°17'0 0.0
2018-Jul-07 05:58N 33°46' W 118°17'0 0.0
2018-Jul-07 05:28N 33°46' W 118°17'0 0.0
2018-Jul-07 04:58N 33°46' W 118°17'0 0.0
2018-Jul-07 04:28N 33°46' W 118°17'0 0.0
2018-Jul-07 03:58N 33°46' W 118°17'0 0.0
2018-Jul-07 03:28N 33°46' W 118°17'0 0.0
2018-Jul-07 02:58N 33°46' W 118°17'0 0.0
2018-Jul-07 02:28N 33°46' W 118°17'0 0.0
2018-Jul-07 01:58N 33°46' W 118°17'0 0.0
2018-Jul-07 01:28N 33°46' W 118°17'0 0.0
2018-Jul-07 00:58N 33°46' W 118°17'0 0.0
2018-Jul-07 00:28N 33°46' W 118°17'0 0.0
2018-Jul-06 23:58N 33°46' W 118°17'0 0.0
2018-Jul-06 23:28N 33°46' W 118°17'0 0.0
2018-Jul-06 22:58N 33°46' W 118°17'0 0.0
2018-Jul-06 22:28N 33°46' W 118°17'0 0.0
2018-Jul-06 21:58N 33°46' W 118°17'0 0.0
2018-Jul-06 21:28N 33°46' W 118°17'0 0.0
2018-Jul-06 20:58N 33°46' W 118°17'0 0.0
2018-Jul-06 20:28N 33°46' W 118°17'0 0.0
2018-Jul-06 19:58N 33°46' W 118°17'0 0.0
2018-Jul-06 19:28N 33°46' W 118°17'0 0.0
2018-Jul-06 18:58N 33°46' W 118°17'0 0.0
2018-Jul-06 18:28N 33°46' W 118°17'0 0.0
2018-Jul-06 17:58N 33°46' W 118°17'0 0.0
2018-Jul-06 17:28N 33°46' W 118°17'0 0.0
2018-Jul-06 16:58N 33°46' W 118°17'0 0.0
2018-Jul-06 16:28N 33°46' W 118°17'0 0.0
2018-Jul-06 15:58N 33°46' W 118°17'0 0.0
2018-Jul-06 15:28N 33°46' W 118°17'0 0.0
2018-Jul-06 14:58N 33°46' W 118°17'0 0.0
2018-Jul-06 14:28N 33°46' W 118°17'0 0.0
2018-Jul-06 13:58N 33°46' W 118°17'0 0.0
2018-Jul-06 13:28N 33°46' W 118°17'0 0.0
2018-Jul-06 13:00N 33°46' W 118°17'1 2.8
2018-Jul-06 12:31N 33°44' W 118°17'3 6.6
2018-Jul-06 12:00N 33°42' W 118°14'3 6.9
2018-Jul-06 11:30N 33°38' W 118°16'3 6.6
2018-Jul-06 11:00N 33°36' W 118°19'3 7.0
2018-Jul-06 10:30N 33°37' W 118°23'4 7.0
2018-Jul-06 10:00N 33°39' W 118°27'4 7.5
2018-Jul-06 09:31N 33°40' W 118°30'4 7.3
2018-Jul-06 09:00N 33°42' W 118°34'4 7.3
2018-Jul-06 08:30N 33°44' W 118°38'510.1
2018-Jul-06 08:00N 33°47' W 118°43'510.6
2018-Jul-06 07:30N 33°49' W 118°49'510.9
2018-Jul-06 07:00N 33°52' W 118°55'611.4
2018-Jul-06 06:30N 33°55' W 119°01'611.5
2018-Jul-06 06:01N 33°57' W 119°07'612.0
2018-Jul-06 05:30N 34°00' W 119°13'612.0
2018-Jul-06 05:00N 34°03' W 119°20'612.1
2018-Jul-06 04:30N 34°04' W 119°27'612.4
2018-Jul-06 04:00N 34°06' W 119°34'612.3
2018-Jul-06 03:30N 34°08' W 119°41'612.5
2018-Jul-06 03:00N 34°10' W 119°48'612.0
2018-Jul-06 02:30N 34°11' W 119°55'612.3
2018-Jul-06 02:00N 34°13' W 120°02'712.9
2018-Jul-06 01:30N 34°15' W 120°10'713.5
2018-Jul-06 01:00N 34°16' W 120°18'713.2
2018-Jul-06 00:30N 34°18' W 120°25'613.0
2018-Jul-06 00:00N 34°20' W 120°33'712.9
2018-Jul-05 23:30N 34°22' W 120°41'613.0
2018-Jul-05 23:00N 34°24' W 120°48'612.6
2018-Jul-05 22:30N 34°27' W 120°55'713.3
2018-Jul-05 22:00N 34°32' W 120°60'713.8
2018-Jul-05 21:30N 34°38' W 121°04'714.0
2018-Jul-05 21:00N 34°43' W 121°09'713.9
2018-Jul-05 20:30N 34°49' W 121°14'713.5
2018-Jul-05 20:00N 34°55' W 121°18'613.0
2018-Jul-05 19:30N 35°01' W 121°22'4 8.1
2018-Jul-05 19:00N 35°04' W 121°25'1 1.2
2018-Jul-05 18:30N 35°04' W 121°25'1 1.1
2018-Jul-05 18:00N 35°05' W 121°25'0 0.7
2018-Jul-05 17:30N 35°05' W 121°25'0 0.8
2018-Jul-05 17:00N 35°06' W 121°26'0 0.6
2018-Jul-05 16:30N 35°06' W 121°26'0 0.7
2018-Jul-05 16:00N 35°06' W 121°26'0 0.7
2018-Jul-05 15:30N 35°06' W 121°26'1 1.6
2018-Jul-05 15:00N 35°07' W 121°27'4 7.4
2018-Jul-05 14:30N 35°10' W 121°30'1313.4
2018-Jul-05 13:30N 35°21' W 121°38'713.3
2018-Jul-05 13:00N 35°27' W 121°42'713.2
2018-Jul-05 12:30N 35°33' W 121°47'713.6
2018-Jul-05 12:00N 35°38' W 121°52'713.4
2018-Jul-05 11:30N 35°44' W 121°56'612.9
2018-Jul-05 11:00N 35°49' W 122°00'612.7
2018-Jul-05 10:30N 35°55' W 122°04'612.8
2018-Jul-05 10:00N 36°01' W 122°07'712.9
2018-Jul-05 09:30N 36°06' W 122°11'612.9
2018-Jul-05 09:00N 36°12' W 122°15'612.7
2018-Jul-05 08:30N 36°18' W 122°18'713.2
2018-Jul-05 08:00N 36°24' W 122°21'713.1
2018-Jul-05 07:30N 36°30' W 122°24'713.4
2018-Jul-05 07:00N 36°36' W 122°27'713.3
2018-Jul-05 06:30N 36°43' W 122°30'713.5
2018-Jul-05 06:00N 36°49' W 122°33'813.1
2018-Jul-05 05:26N 36°56' W 122°37'612.9
2018-Jul-05 05:00N 37°01' W 122°40'713.1
2018-Jul-05 04:30N 37°07' W 122°42'713.5
2018-Jul-05 04:00N 37°14' W 122°44'712.9
2018-Jul-05 03:30N 37°20' W 122°43'611.7
2018-Jul-05 03:00N 37°26' W 122°43'611.3
2018-Jul-05 02:30N 37°32' W 122°43'611.3
2018-Jul-05 02:00N 37°37' W 122°43'510.1
2018-Jul-05 01:30N 37°42' W 122°42'4 8.2
2018-Jul-05 01:00N 37°46' W 122°40'612.7
2018-Jul-05 00:30N 37°48' W 122°32'612.1
2018-Jul-05 00:00N 37°51' W 122°25'510.1
2018-Jul-04 23:30N 37°48' W 122°20'1 1.3
2018-Jul-04 23:00N 37°48' W 122°19'0 0.0
2018-Jul-04 22:30N 37°48' W 122°19'0 0.0
2018-Jul-04 22:00N 37°48' W 122°19'0 0.0
2018-Jul-04 21:30N 37°48' W 122°19'0 0.0
2018-Jul-04 21:00N 37°48' W 122°19'0 0.0
2018-Jul-04 20:30N 37°48' W 122°19'0 0.0
2018-Jul-04 20:00N 37°48' W 122°19'0 0.0
2018-Jul-04 19:30N 37°48' W 122°19'0 0.0
2018-Jul-04 19:00N 37°48' W 122°19'0 0.0
2018-Jul-04 18:30N 37°48' W 122°19'0 0.0
2018-Jul-04 18:00N 37°48' W 122°19'0 0.0
2018-Jul-04 17:30N 37°48' W 122°19'0 0.0
2018-Jul-04 17:00N 37°48' W 122°19'0 0.1
2018-Jul-04 16:30N 37°48' W 122°19'0 0.1
2018-Jul-04 16:00N 37°48' W 122°19'0 0.0
2018-Jul-04 15:30N 37°48' W 122°19'0 0.0
2018-Jul-04 15:00N 37°48' W 122°19'0 0.0
2018-Jul-04 14:30N 37°48' W 122°19'0 0.0
2018-Jul-04 14:00N 37°48' W 122°19'0 0.0
2018-Jul-04 13:30N 37°48' W 122°19'0 0.0
2018-Jul-04 13:00N 37°48' W 122°19'0 0.0
2018-Jul-04 12:30N 37°48' W 122°19'1 1.6
2018-Jul-04 12:00N 37°48' W 122°18'0 0.2
2018-Jul-04 11:30N 37°48' W 122°18'4 8.0
2018-Jul-04 11:00N 37°49' W 122°23'714.1
2018-Jul-04 10:30N 37°48' W 122°32'714.1
2018-Jul-04 10:00N 37°46' W 122°41'5 9.5
2018-Jul-04 09:30N 37°47' W 122°47'510.4
2018-Jul-04 09:00N 37°49' W 122°53'611.1
2018-Jul-04 08:30N 37°52' W 122°59'510.6
2018-Jul-04 08:00N 37°54' W 123°05'612.1
2018-Jul-04 07:30N 37°58' W 123°11'612.1
2018-Jul-04 07:00N 38°02' W 123°16'612.2
2018-Jul-04 06:30N 38°07' W 123°21'612.5
2018-Jul-04 06:00N 38°12' W 123°26'612.7
2018-Jul-04 05:30N 38°17' W 123°30'612.3
2018-Jul-04 05:00N 38°22' W 123°35'612.3
2018-Jul-04 04:30N 38°27' W 123°39'612.8
2018-Jul-04 04:00N 38°33' W 123°44'713.2
2018-Jul-04 03:28N 38°38' W 123°49'612.9
2018-Jul-04 03:00N 38°43' W 123°54'612.8
2018-Jul-04 02:30N 38°49' W 123°58'712.9
2018-Jul-04 01:56N 38°55' W 124°04'27 6.0
2018-Jul-03 21:25N 38°31' W 123°46'4 8.7
2018-Jul-03 20:59N 38°28' W 123°44'4 8.7
2018-Jul-03 20:30N 38°24' W 123°41'4 7.2
2018-Jul-03 20:00N 38°21' W 123°39'4 7.5
2018-Jul-03 19:30N 38°18' W 123°36'0 0.7
2018-Jul-03 19:00N 38°18' W 123°36'2 4.2
2018-Jul-03 18:30N 38°17' W 123°35'611.4
2018-Jul-03 18:00N 38°13' W 123°29'510.9
2018-Jul-03 17:30N 38°09' W 123°25'1 3.0
2018-Jul-03 17:00N 38°10' W 123°24'713.3
2018-Jul-03 16:28N 38°16' W 123°29'612.8
2018-Jul-03 16:00N 38°21' W 123°33'713.1
2018-Jul-03 15:30N 38°26' W 123°38'714.0
2018-Jul-03 15:00N 38°32' W 123°43'714.3
2018-Jul-03 14:30N 38°38' W 123°48'714.1
2018-Jul-03 14:00N 38°44' W 123°54'813.8
2018-Jul-03 13:28N 38°50' W 123°59'613.5
2018-Jul-03 13:00N 38°55' W 124°04'37010.7
2018-Jul-02 02:23N 45°00' W 125°24'513.9
2018-Jul-02 02:00N 45°05' W 125°24'714.5
2018-Jul-02 01:30N 45°12' W 125°25'1014.5
2018-Jul-02 00:51N 45°22' W 125°25'514.6
2018-Jul-02 00:30N 45°27' W 125°25'714.2
2018-Jul-02 00:00N 45°34' W 125°25'714.0
2018-Jul-01 23:30N 45°41' W 125°25'713.9
2018-Jul-01 23:00N 45°48' W 125°26'714.2
2018-Jul-01 22:30N 45°55' W 125°26'714.3
2018-Jul-01 22:00N 46°02' W 125°26'714.1
2018-Jul-01 21:31N 46°09' W 125°26'714.3
2018-Jul-01 21:01N 46°16' W 125°26'713.9
2018-Jul-01 20:30N 46°23' W 125°27'713.9
2018-Jul-01 20:00N 46°30' W 125°27'1014.2
2018-Jul-01 19:19N 46°40' W 125°27'414.2
2018-Jul-01 19:00N 46°44' W 125°28'814.3
2018-Jul-01 18:25N 46°53' W 125°28'614.2
2018-Jul-01 18:01N 46°59' W 125°28'1514.1
2018-Jul-01 16:57N 47°14' W 125°28'5913.8
2018-Jul-01 12:39N 48°13' W 125°18'513.5
2018-Jul-01 12:18N 48°17' W 125°15'513.7
2018-Jul-01 11:57N 48°21' W 125°11'613.3
2018-Jul-01 11:28N 48°26' W 125°06'612.4
2018-Jul-01 11:00N 48°30' W 125°00'612.9
2018-Jul-01 10:30N 48°30' W 124°50'713.5
2018-Jul-01 10:00N 48°30' W 124°40'714.1
2018-Jul-01 09:30N 48°27' W 124°31'713.9
2018-Jul-01 09:00N 48°24' W 124°21'714.2
2018-Jul-01 08:30N 48°22' W 124°11'714.1
2018-Jul-01 08:01N 48°19' W 124°01'714.4
2018-Jul-01 07:31N 48°17' W 123°51'1014.7
2018-Jul-01 06:50N 48°15' W 123°36'713.0
2018-Jul-01 06:17N 48°19' W 123°27'413.7
2018-Jul-01 06:00N 48°23' W 123°24'612.9
2018-Jul-01 05:30N 48°24' W 123°15'918.4
2018-Jul-01 05:00N 48°33' W 123°13'1019.2
2018-Jul-01 04:30N 48°42' W 123°15'1019.7
2018-Jul-01 03:58N 48°48' W 123°01'919.0
2018-Jul-01 03:30N 48°55' W 123°09'918.7
2018-Jul-01 03:00N 49°01' W 123°19'510.0
2018-Jul-01 02:30N 49°06' W 123°18'510.8
2018-Jul-01 02:00N 49°07' W 123°10'510.7
2018-Jul-01 01:30N 49°09' W 123°02'5 9.7
2018-Jul-01 01:00N 49°11' W 122°55'1 1.0
2018-Jul-01 00:30N 49°11' W 122°55'0 0.0
2018-Jul-01 00:00N 49°11' W 122°55'0 0.0
2018-Jun-30 23:30N 49°11' W 122°55'0 0.0
2018-Jun-30 22:57N 49°11' W 122°55'0 0.0
2018-Jun-30 22:30N 49°11' W 122°55'0 0.0
2018-Jun-30 22:00N 49°11' W 122°55'0 0.0
2018-Jun-30 21:30N 49°11' W 122°55'0 0.0
2018-Jun-30 21:00N 49°11' W 122°55'0 0.0
2018-Jun-30 20:30N 49°11' W 122°55'0 0.0
2018-Jun-30 20:00N 49°11' W 122°55'0 0.0
2018-Jun-30 19:30N 49°11' W 122°55'0 0.0
2018-Jun-30 19:00N 49°11' W 122°55'0 0.0
2018-Jun-30 18:30N 49°11' W 122°55'0 0.0
2018-Jun-30 18:00N 49°11' W 122°55'0 0.0
2018-Jun-30 17:30N 49°11' W 122°55'0 0.0
2018-Jun-30 17:00N 49°11' W 122°55'0 0.0
2018-Jun-30 16:30N 49°11' W 122°55'0 0.0
2018-Jun-30 16:00N 49°11' W 122°55'0 0.0
2018-Jun-30 15:30N 49°11' W 122°55'0 0.0
2018-Jun-30 15:00N 49°11' W 122°55'0 0.0
2018-Jun-30 14:30N 49°11' W 122°55'0 0.0
2018-Jun-30 14:00N 49°11' W 122°55'0 0.0
2018-Jun-30 13:30N 49°11' W 122°55'0 0.0
2018-Jun-30 13:00N 49°11' W 122°55'0 0.0
2018-Jun-30 12:30N 49°11' W 122°55'0 0.1
2018-Jun-30 12:00N 49°11' W 122°55'0 0.1
2018-Jun-30 11:30N 49°11' W 122°55'0 0.0
2018-Jun-30 11:00N 49°11' W 122°55'0 0.0
2018-Jun-30 10:30N 49°11' W 122°55'0 0.0
2018-Jun-30 10:00N 49°11' W 122°55'0 0.0
2018-Jun-30 09:30N 49°11' W 122°55'0 0.0
2018-Jun-30 09:00N 49°11' W 122°55'0 0.0
2018-Jun-30 08:30N 49°11' W 122°55'0 0.0
2018-Jun-30 08:00N 49°11' W 122°55'0 0.0
2018-Jun-30 07:30N 49°11' W 122°55'0 0.0
2018-Jun-30 07:00N 49°11' W 122°55'0 0.0
2018-Jun-30 06:30N 49°11' W 122°55'0 0.0
2018-Jun-30 05:57N 49°11' W 122°55'0 0.0
2018-Jun-30 05:30N 49°11' W 122°55'0 0.0
2018-Jun-30 05:00N 49°11' W 122°55'0 0.0
2018-Jun-30 04:30N 49°11' W 122°55'0 0.0
2018-Jun-30 04:00N 49°11' W 122°55'0 0.0
2018-Jun-30 03:30N 49°11' W 122°55'0 0.0
2018-Jun-30 03:00N 49°11' W 122°55'0 0.0
2018-Jun-30 02:30N 49°11' W 122°55'0 0.0
2018-Jun-30 02:00N 49°11' W 122°55'0 0.0
2018-Jun-30 01:30N 49°11' W 122°55'0 0.0
2018-Jun-30 01:00N 49°11' W 122°55'0 0.5
2018-Jun-30 00:30N 49°11' W 122°55'3 5.4
2018-Jun-30 00:00N 49°09' W 122°59'4 8.2
2018-Jun-29 23:30N 49°08' W 123°04'4 8.9
2018-Jun-29 23:00N 49°07' W 123°11'5 9.4
2018-Jun-29 22:29N 49°06' W 123°18'4 7.6
2018-Jun-29 22:00N 49°03' W 123°17'612.7
2018-Jun-29 21:30N 48°58' W 123°10'611.2
2018-Jun-29 21:00N 48°55' W 123°04'612.0
2018-Jun-29 20:31N 48°49' W 122°59'918.4
2018-Jun-29 20:00N 48°43' W 123°10'815.6
2018-Jun-29 19:31N 48°36' W 123°13'917.6
2018-Jun-29 19:01N 48°27' W 123°10'815.1
2018-Jun-29 18:30N 48°22' W 123°18'510.2
2018-Jun-29 18:00N 48°19' W 123°25'13 8.7
2018-Jun-29 16:30N 48°14' W 123°42'4 5.6
2018-Jun-29 15:51N 48°17' W 123°46'  
Track history (hours):
 
Tides and Currents Weather Stations Pressure Air Temp Water Temp Dewpoint Dewpoint Depression Visibility Wind Speed Wind Dir Waves Ship Positions

Nyk Meteor

Last reported at 2018-Jul-09 15:34 UTC. Time now 2018-Jul-16 14:41 UTC.
Position N 26°33' W 114°50'.

Length 294 m; draft 11 m.

Type: Cargo ship. MMSI: 354212000.

Date/timePositionNaut miles runAvg speedWind from/ knotsBaromVisibWave heightAir tempDewpointWater temp
2018-Jul-09 15:34N 26°33' W 114°50'218.1
2018-Jul-09 15:29N 26°35' W 114°50'1517.9
2018-Jul-09 14:40N 26°47' W 114°59'318.2
2018-Jul-09 14:30N 26°50' W 115°01'918.3
2018-Jul-09 14:00N 26°58' W 115°07'918.1
2018-Jul-09 13:29N 27°05' W 115°13'1518.0
2018-Jul-09 12:40N 27°17' W 115°22'1418.9
2018-Jul-09 11:55N 27°29' W 115°30'717.5
2018-Jul-09 11:30N 27°35' W 115°35'5617.4
2018-Jul-09 08:18N 28°24' W 116°07'517.7
2018-Jul-09 08:00N 28°28' W 116°09'917.8
2018-Jul-09 07:28N 28°37' W 116°14'1017.9
2018-Jul-09 06:55N 28°46' W 116°19'718.1
2018-Jul-09 06:30N 28°52' W 116°23'918.3
2018-Jul-09 06:00N 29°01' W 116°27'918.5
2018-Jul-09 05:30N 29°09' W 116°32'918.8
2018-Jul-09 05:00N 29°18' W 116°36'1018.7
2018-Jul-09 04:30N 29°26' W 116°41'918.7
2018-Jul-09 04:00N 29°35' W 116°44'1218.5
2018-Jul-09 03:19N 29°47' W 116°48'718.4
2018-Jul-09 02:55N 29°54' W 116°51'818.4
2018-Jul-09 02:30N 30°01' W 116°53'1118.4
2018-Jul-09 01:56N 30°11' W 116°57'818.2
2018-Jul-09 01:30N 30°19' W 117°00'917.9
2018-Jul-09 00:59N 30°28' W 117°03'917.8
2018-Jul-09 00:30N 30°36' W 117°06'917.8
2018-Jul-09 00:01N 30°44' W 117°09'917.8
2018-Jul-08 23:31N 30°53' W 117°13'917.6
2018-Jul-08 23:00N 31°01' W 117°16'917.8
2018-Jul-08 22:30N 31°10' W 117°19'917.7
2018-Jul-08 22:01N 31°18' W 117°21'917.9
2018-Jul-08 21:30N 31°27' W 117°24'917.8
2018-Jul-08 21:01N 31°35' W 117°28'917.8
2018-Jul-08 20:30N 31°44' W 117°31'917.9
2018-Jul-08 20:01N 31°52' W 117°34'917.9
2018-Jul-08 19:30N 32°01' W 117°37'917.6
2018-Jul-08 19:00N 32°09' W 117°41'917.4
2018-Jul-08 18:30N 32°17' W 117°44'917.8
2018-Jul-08 18:00N 32°26' W 117°47'917.8
2018-Jul-08 17:30N 32°34' W 117°51'817.0
2018-Jul-08 17:00N 32°42' W 117°54'917.0
2018-Jul-08 16:30N 32°50' W 117°56'917.7
2018-Jul-08 16:00N 32°59' W 117°59'713.5
2018-Jul-08 15:30N 33°06' W 118°01'611.9
2018-Jul-08 15:00N 33°11' W 118°03'611.6
2018-Jul-08 14:31N 33°17' W 118°05'611.7
2018-Jul-08 14:00N 33°22' W 118°08'611.9
2018-Jul-08 13:31N 33°28' W 118°10'611.7
2018-Jul-08 13:01N 33°33' W 118°12'510.3
2018-Jul-08 12:31N 33°38' W 118°14'4 8.4
2018-Jul-08 12:00N 33°42' W 118°15'3 5.5
2018-Jul-08 11:31N 33°45' W 118°16'1 1.8
2018-Jul-08 11:01N 33°46' W 118°17'0 0.0
2018-Jul-08 10:28N 33°46' W 118°17'0 0.0
2018-Jul-08 09:58N 33°46' W 118°17'0 0.0
2018-Jul-08 09:28N 33°46' W 118°17'0 0.0
2018-Jul-08 08:58N 33°46' W 118°17'0 0.0
2018-Jul-08 08:28N 33°46' W 118°17'0 0.0
2018-Jul-08 07:58N 33°46' W 118°17'0 0.0
2018-Jul-08 07:28N 33°46' W 118°17'0 0.0
2018-Jul-08 06:58N 33°46' W 118°17'0 0.0
2018-Jul-08 06:28N 33°46' W 118°17'0 0.0
2018-Jul-08 05:58N 33°46' W 118°17'0 0.0
2018-Jul-08 05:28N 33°46' W 118°17'0 0.0
2018-Jul-08 04:58N 33°46' W 118°17'0 0.0
2018-Jul-08 04:28N 33°46' W 118°17'0 0.0
2018-Jul-08 03:55N 33°46' W 118°17'0 0.0
2018-Jul-08 03:28N 33°46' W 118°17'0 0.0
2018-Jul-08 02:58N 33°46' W 118°17'0 0.0
2018-Jul-08 02:28N 33°46' W 118°17'0 0.0
2018-Jul-08 01:58N 33°46' W 118°17'0 0.0
2018-Jul-08 01:28N 33°46' W 118°17'0 0.0
2018-Jul-08 00:58N 33°46' W 118°17'0 0.0
2018-Jul-08 00:28N 33°46' W 118°17'0 0.0
2018-Jul-07 23:58N 33°46' W 118°17'0 0.0
2018-Jul-07 23:28N 33°46' W 118°17'0 0.0
2018-Jul-07 22:58N 33°46' W 118°17'0 0.0
2018-Jul-07 22:28N 33°46' W 118°17'0 0.0
2018-Jul-07 21:58N 33°46' W 118°17'0 0.0
2018-Jul-07 21:28N 33°46' W 118°17'0 0.0
2018-Jul-07 20:58N 33°46' W 118°17'0 0.0
2018-Jul-07 20:28N 33°46' W 118°17'0 0.0
2018-Jul-07 19:58N 33°46' W 118°17'0 0.0
2018-Jul-07 19:28N 33°46' W 118°17'0 0.0
2018-Jul-07 18:58N 33°46' W 118°17'0 0.0
2018-Jul-07 18:28N 33°46' W 118°17'0 0.0
2018-Jul-07 17:58N 33°46' W 118°17'0 0.0
2018-Jul-07 17:28N 33°46' W 118°17'0 0.0
2018-Jul-07 16:58N 33°46' W 118°17'0 0.0
2018-Jul-07 16:28N 33°46' W 118°17'0 0.0
2018-Jul-07 15:58N 33°46' W 118°17'0 0.0
2018-Jul-07 15:28N 33°46' W 118°17'0 0.0
2018-Jul-07 14:58N 33°46' W 118°17'0 0.0
2018-Jul-07 14:28N 33°46' W 118°17'0 0.0
2018-Jul-07 13:58N 33°46' W 118°17'0 0.0
2018-Jul-07 13:28N 33°46' W 118°17'0 0.0
2018-Jul-07 12:58N 33°46' W 118°17'0 0.0
2018-Jul-07 12:28N 33°46' W 118°17'0 0.0
2018-Jul-07 11:58N 33°46' W 118°17'0 0.0
2018-Jul-07 11:28N 33°46' W 118°17'0 0.0
2018-Jul-07 10:58N 33°46' W 118°17'0 0.0
2018-Jul-07 10:28N 33°46' W 118°17'0 0.0
2018-Jul-07 09:58N 33°46' W 118°17'0 0.0
2018-Jul-07 09:28N 33°46' W 118°17'0 0.0
2018-Jul-07 08:58N 33°46' W 118°17'0 0.0
2018-Jul-07 08:28N 33°46' W 118°17'0 0.0
2018-Jul-07 07:58N 33°46' W 118°17'0 0.0
2018-Jul-07 07:28N 33°46' W 118°17'0 0.0
2018-Jul-07 06:58N 33°46' W 118°17'0 0.0
2018-Jul-07 06:28N 33°46' W 118°17'0 0.0
2018-Jul-07 05:58N 33°46' W 118°17'0 0.0
2018-Jul-07 05:28N 33°46' W 118°17'0 0.0
2018-Jul-07 04:58N 33°46' W 118°17'0 0.0
2018-Jul-07 04:28N 33°46' W 118°17'0 0.0
2018-Jul-07 03:58N 33°46' W 118°17'0 0.0
2018-Jul-07 03:28N 33°46' W 118°17'0 0.0
2018-Jul-07 02:58N 33°46' W 118°17'0 0.0
2018-Jul-07 02:28N 33°46' W 118°17'0 0.0
2018-Jul-07 01:58N 33°46' W 118°17'0 0.0
2018-Jul-07 01:28N 33°46' W 118°17'0 0.0
2018-Jul-07 00:58N 33°46' W 118°17'0 0.0
2018-Jul-07 00:28N 33°46' W 118°17'0 0.0
2018-Jul-06 23:58N 33°46' W 118°17'0 0.0
2018-Jul-06 23:28N 33°46' W 118°17'0 0.0
2018-Jul-06 22:58N 33°46' W 118°17'0 0.0
2018-Jul-06 22:28N 33°46' W 118°17'0 0.0
2018-Jul-06 21:58N 33°46' W 118°17'0 0.0
2018-Jul-06 21:28N 33°46' W 118°17'0 0.0
2018-Jul-06 20:58N 33°46' W 118°17'0 0.0
2018-Jul-06 20:28N 33°46' W 118°17'0 0.0
2018-Jul-06 19:58N 33°46' W 118°17'0 0.0
2018-Jul-06 19:28N 33°46' W 118°17'0 0.0
2018-Jul-06 18:58N 33°46' W 118°17'0 0.0
2018-Jul-06 18:28N 33°46' W 118°17'0 0.0
2018-Jul-06 17:58N 33°46' W 118°17'0 0.0
2018-Jul-06 17:28N 33°46' W 118°17'0 0.0
2018-Jul-06 16:58N 33°46' W 118°17'0 0.0
2018-Jul-06 16:28N 33°46' W 118°17'0 0.0
2018-Jul-06 15:58N 33°46' W 118°17'0 0.0
2018-Jul-06 15:28N 33°46' W 118°17'0 0.0
2018-Jul-06 14:58N 33°46' W 118°17'0 0.0
2018-Jul-06 14:28N 33°46' W 118°17'0 0.0
2018-Jul-06 13:58N 33°46' W 118°17'0 0.0
2018-Jul-06 13:28N 33°46' W 118°17'0 0.0
2018-Jul-06 13:00N 33°46' W 118°17'1 2.8
2018-Jul-06 12:31N 33°44' W 118°17'3 6.6
2018-Jul-06 12:00N 33°42' W 118°14'3 6.9
2018-Jul-06 11:30N 33°38' W 118°16'3 6.6
2018-Jul-06 11:00N 33°36' W 118°19'3 7.0
2018-Jul-06 10:30N 33°37' W 118°23'4 7.0
2018-Jul-06 10:00N 33°39' W 118°27'4 7.5
2018-Jul-06 09:31N 33°40' W 118°30'4 7.3
2018-Jul-06 09:00N 33°42' W 118°34'4 7.3
2018-Jul-06 08:30N 33°44' W 118°38'510.1
2018-Jul-06 08:00N 33°47' W 118°43'510.6
2018-Jul-06 07:30N 33°49' W 118°49'510.9
2018-Jul-06 07:00N 33°52' W 118°55'611.4
2018-Jul-06 06:30N 33°55' W 119°01'611.5
2018-Jul-06 06:01N 33°57' W 119°07'612.0
2018-Jul-06 05:30N 34°00' W 119°13'612.0
2018-Jul-06 05:00N 34°03' W 119°20'612.1
2018-Jul-06 04:30N 34°04' W 119°27'612.4
2018-Jul-06 04:00N 34°06' W 119°34'612.3
2018-Jul-06 03:30N 34°08' W 119°41'612.5
2018-Jul-06 03:00N 34°10' W 119°48'612.0
2018-Jul-06 02:30N 34°11' W 119°55'612.3
2018-Jul-06 02:00N 34°13' W 120°02'712.9
2018-Jul-06 01:30N 34°15' W 120°10'713.5
2018-Jul-06 01:00N 34°16' W 120°18'713.2
2018-Jul-06 00:30N 34°18' W 120°25'613.0
2018-Jul-06 00:00N 34°20' W 120°33'712.9
2018-Jul-05 23:30N 34°22' W 120°41'613.0
2018-Jul-05 23:00N 34°24' W 120°48'612.6
2018-Jul-05 22:30N 34°27' W 120°55'713.3
2018-Jul-05 22:00N 34°32' W 120°60'713.8
2018-Jul-05 21:30N 34°38' W 121°04'714.0
2018-Jul-05 21:00N 34°43' W 121°09'713.9
2018-Jul-05 20:30N 34°49' W 121°14'713.5
2018-Jul-05 20:00N 34°55' W 121°18'613.0
2018-Jul-05 19:30N 35°01' W 121°22'4 8.1
2018-Jul-05 19:00N 35°04' W 121°25'1 1.2
2018-Jul-05 18:30N 35°04' W 121°25'1 1.1
2018-Jul-05 18:00N 35°05' W 121°25'0 0.7
2018-Jul-05 17:30N 35°05' W 121°25'0 0.8
2018-Jul-05 17:00N 35°06' W 121°26'0 0.6
2018-Jul-05 16:30N 35°06' W 121°26'0 0.7
2018-Jul-05 16:00N 35°06' W 121°26'0 0.7
2018-Jul-05 15:30N 35°06' W 121°26'1 1.6
2018-Jul-05 15:00N 35°07' W 121°27'4 7.4
2018-Jul-05 14:30N 35°10' W 121°30'1313.4
2018-Jul-05 13:30N 35°21' W 121°38'713.3
2018-Jul-05 13:00N 35°27' W 121°42'713.2
2018-Jul-05 12:30N 35°33' W 121°47'713.6
2018-Jul-05 12:00N 35°38' W 121°52'713.4
2018-Jul-05 11:30N 35°44' W 121°56'612.9
2018-Jul-05 11:00N 35°49' W 122°00'612.7
2018-Jul-05 10:30N 35°55' W 122°04'612.8
2018-Jul-05 10:00N 36°01' W 122°07'712.9
2018-Jul-05 09:30N 36°06' W 122°11'612.9
2018-Jul-05 09:00N 36°12' W 122°15'612.7
2018-Jul-05 08:30N 36°18' W 122°18'713.2
2018-Jul-05 08:00N 36°24' W 122°21'713.1
2018-Jul-05 07:30N 36°30' W 122°24'713.4
2018-Jul-05 07:00N 36°36' W 122°27'713.3
2018-Jul-05 06:30N 36°43' W 122°30'713.5
2018-Jul-05 06:00N 36°49' W 122°33'813.1
2018-Jul-05 05:26N 36°56' W 122°37'612.9
2018-Jul-05 05:00N 37°01' W 122°40'713.1
2018-Jul-05 04:30N 37°07' W 122°42'713.5
2018-Jul-05 04:00N 37°14' W 122°44'712.9
2018-Jul-05 03:30N 37°20' W 122°43'611.7
2018-Jul-05 03:00N 37°26' W 122°43'611.3
2018-Jul-05 02:30N 37°32' W 122°43'611.3
2018-Jul-05 02:00N 37°37' W 122°43'510.1
2018-Jul-05 01:30N 37°42' W 122°42'4 8.2
2018-Jul-05 01:00N 37°46' W 122°40'612.7
2018-Jul-05 00:30N 37°48' W 122°32'612.1
2018-Jul-05 00:00N 37°51' W 122°25'510.1
2018-Jul-04 23:30N 37°48' W 122°20'1 1.3
2018-Jul-04 23:00N 37°48' W 122°19'0 0.0
2018-Jul-04 22:30N 37°48' W 122°19'0 0.0
2018-Jul-04 22:00N 37°48' W 122°19'0 0.0
2018-Jul-04 21:30N 37°48' W 122°19'0 0.0
2018-Jul-04 21:00N 37°48' W 122°19'0 0.0
2018-Jul-04 20:30N 37°48' W 122°19'0 0.0
2018-Jul-04 20:00N 37°48' W 122°19'0 0.0
2018-Jul-04 19:30N 37°48' W 122°19'0 0.0
2018-Jul-04 19:00N 37°48' W 122°19'0 0.0
2018-Jul-04 18:30N 37°48' W 122°19'0 0.0
2018-Jul-04 18:00N 37°48' W 122°19'0 0.0
2018-Jul-04 17:30N 37°48' W 122°19'0 0.0
2018-Jul-04 17:00N 37°48' W 122°19'0 0.1
2018-Jul-04 16:30N 37°48' W 122°19'0 0.1
2018-Jul-04 16:00N 37°48' W 122°19'0 0.0
2018-Jul-04 15:30N 37°48' W 122°19'0 0.0
2018-Jul-04 15:00N 37°48' W 122°19'0 0.0
2018-Jul-04 14:30N 37°48' W 122°19'0 0.0
2018-Jul-04 14:00N 37°48' W 122°19'0 0.0
2018-Jul-04 13:30N 37°48' W 122°19'0 0.0
2018-Jul-04 13:00N 37°48' W 122°19'0 0.0
2018-Jul-04 12:30N 37°48' W 122°19'1 1.6
2018-Jul-04 12:00N 37°48' W 122°18'0 0.2
2018-Jul-04 11:30N 37°48' W 122°18'4 8.0
2018-Jul-04 11:00N 37°49' W 122°23'714.1
2018-Jul-04 10:30N 37°48' W 122°32'714.1
2018-Jul-04 10:00N 37°46' W 122°41'5 9.5
2018-Jul-04 09:30N 37°47' W 122°47'510.4
2018-Jul-04 09:00N 37°49' W 122°53'611.1
2018-Jul-04 08:30N 37°52' W 122°59'510.6
2018-Jul-04 08:00N 37°54' W 123°05'612.1
2018-Jul-04 07:30N 37°58' W 123°11'612.1
2018-Jul-04 07:00N 38°02' W 123°16'612.2
2018-Jul-04 06:30N 38°07' W 123°21'612.5
2018-Jul-04 06:00N 38°12' W 123°26'612.7
2018-Jul-04 05:30N 38°17' W 123°30'612.3
2018-Jul-04 05:00N 38°22' W 123°35'612.3
2018-Jul-04 04:30N 38°27' W 123°39'612.8
2018-Jul-04 04:00N 38°33' W 123°44'713.2
2018-Jul-04 03:28N 38°38' W 123°49'612.9
2018-Jul-04 03:00N 38°43' W 123°54'612.8
2018-Jul-04 02:30N 38°49' W 123°58'712.9
2018-Jul-04 01:56N 38°55' W 124°04'27 6.0
2018-Jul-03 21:25N 38°31' W 123°46'4 8.7
2018-Jul-03 20:59N 38°28' W 123°44'4 8.7
2018-Jul-03 20:30N 38°24' W 123°41'4 7.2
2018-Jul-03 20:00N 38°21' W 123°39'4 7.5
2018-Jul-03 19:30N 38°18' W 123°36'0 0.7
2018-Jul-03 19:00N 38°18' W 123°36'2 4.2
2018-Jul-03 18:30N 38°17' W 123°35'611.4
2018-Jul-03 18:00N 38°13' W 123°29'510.9
2018-Jul-03 17:30N 38°09' W 123°25'1 3.0
2018-Jul-03 17:00N 38°10' W 123°24'713.3
2018-Jul-03 16:28N 38°16' W 123°29'612.8
2018-Jul-03 16:00N 38°21' W 123°33'713.1
2018-Jul-03 15:30N 38°26' W 123°38'714.0
2018-Jul-03 15:00N 38°32' W 123°43'714.3
2018-Jul-03 14:30N 38°38' W 123°48'714.1
2018-Jul-03 14:00N 38°44' W 123°54'813.8
2018-Jul-03 13:28N 38°50' W 123°59'613.5
2018-Jul-03 13:00N 38°55' W 124°04'37010.7
2018-Jul-02 02:23N 45°00' W 125°24'513.9
2018-Jul-02 02:00N 45°05' W 125°24'714.5
2018-Jul-02 01:30N 45°12' W 125°25'1014.5
2018-Jul-02 00:51N 45°22' W 125°25'514.6
2018-Jul-02 00:30N 45°27' W 125°25'714.2
2018-Jul-02 00:00N 45°34' W 125°25'714.0
2018-Jul-01 23:30N 45°41' W 125°25'713.9
2018-Jul-01 23:00N 45°48' W 125°26'714.2
2018-Jul-01 22:30N 45°55' W 125°26'714.3
2018-Jul-01 22:00N 46°02' W 125°26'714.1
2018-Jul-01 21:31N 46°09' W 125°26'714.3
2018-Jul-01 21:01N 46°16' W 125°26'713.9
2018-Jul-01 20:30N 46°23' W 125°27'713.9
2018-Jul-01 20:00N 46°30' W 125°27'1014.2
2018-Jul-01 19:19N 46°40' W 125°27'414.2
2018-Jul-01 19:00N 46°44' W 125°28'814.3
2018-Jul-01 18:25N 46°53' W 125°28'614.2
2018-Jul-01 18:01N 46°59' W 125°28'1514.1
2018-Jul-01 16:57N 47°14' W 125°28'5913.8
2018-Jul-01 12:39N 48°13' W 125°18'513.5
2018-Jul-01 12:18N 48°17' W 125°15'513.7
2018-Jul-01 11:57N 48°21' W 125°11'613.3
2018-Jul-01 11:28N 48°26' W 125°06'612.4
2018-Jul-01 11:00N 48°30' W 125°00'612.9
2018-Jul-01 10:30N 48°30' W 124°50'713.5
2018-Jul-01 10:00N 48°30' W 124°40'714.1
2018-Jul-01 09:30N 48°27' W 124°31'713.9
2018-Jul-01 09:00N 48°24' W 124°21'714.2
2018-Jul-01 08:30N 48°22' W 124°11'714.1
2018-Jul-01 08:01N 48°19' W 124°01'714.4
2018-Jul-01 07:31N 48°17' W 123°51'1014.7
2018-Jul-01 06:50N 48°15' W 123°36'713.0
2018-Jul-01 06:17N 48°19' W 123°27'413.7
2018-Jul-01 06:00N 48°23' W 123°24'612.9
2018-Jul-01 05:30N 48°24' W 123°15'918.4
2018-Jul-01 05:00N 48°33' W 123°13'1019.2
2018-Jul-01 04:30N 48°42' W 123°15'1019.7
2018-Jul-01 03:58N 48°48' W 123°01'919.0
2018-Jul-01 03:30N 48°55' W 123°09'918.7
2018-Jul-01 03:00N 49°01' W 123°19'510.0
2018-Jul-01 02:30N 49°06' W 123°18'510.8
2018-Jul-01 02:00N 49°07' W 123°10'510.7
2018-Jul-01 01:30N 49°09' W 123°02'5 9.7
2018-Jul-01 01:00N 49°11' W 122°55'1 1.0
2018-Jul-01 00:30N 49°11' W 122°55'0 0.0
2018-Jul-01 00:00N 49°11' W 122°55'0 0.0
2018-Jun-30 23:30N 49°11' W 122°55'0 0.0
2018-Jun-30 22:57N 49°11' W 122°55'0 0.0
2018-Jun-30 22:30N 49°11' W 122°55'0 0.0
2018-Jun-30 22:00N 49°11' W 122°55'0 0.0
2018-Jun-30 21:30N 49°11' W 122°55'0 0.0
2018-Jun-30 21:00N 49°11' W 122°55'0 0.0
2018-Jun-30 20:30N 49°11' W 122°55'0 0.0
2018-Jun-30 20:00N 49°11' W 122°55'0 0.0
2018-Jun-30 19:30N 49°11' W 122°55'0 0.0
2018-Jun-30 19:00N 49°11' W 122°55'0 0.0
2018-Jun-30 18:30N 49°11' W 122°55'0 0.0
2018-Jun-30 18:00N 49°11' W 122°55'0 0.0
2018-Jun-30 17:30N 49°11' W 122°55'0 0.0
2018-Jun-30 17:00N 49°11' W 122°55'0 0.0
2018-Jun-30 16:30N 49°11' W 122°55'0 0.0
2018-Jun-30 16:00N 49°11' W 122°55'0 0.0
2018-Jun-30 15:30N 49°11' W 122°55'0 0.0
2018-Jun-30 15:00N 49°11' W 122°55'0 0.0
2018-Jun-30 14:30N 49°11' W 122°55'0 0.0
2018-Jun-30 14:00N 49°11' W 122°55'0 0.0
2018-Jun-30 13:30N 49°11' W 122°55'0 0.0
2018-Jun-30 13:00N 49°11' W 122°55'0 0.0
2018-Jun-30 12:30N 49°11' W 122°55'0 0.1
2018-Jun-30 12:00N 49°11' W 122°55'0 0.1
2018-Jun-30 11:30N 49°11' W 122°55'0 0.0
2018-Jun-30 11:00N 49°11' W 122°55'0 0.0
2018-Jun-30 10:30N 49°11' W 122°55'0 0.0
2018-Jun-30 10:00N 49°11' W 122°55'0 0.0
2018-Jun-30 09:30N 49°11' W 122°55'0 0.0
2018-Jun-30 09:00N 49°11' W 122°55'0 0.0
2018-Jun-30 08:30N 49°11' W 122°55'0 0.0
2018-Jun-30 08:00N 49°11' W 122°55'0 0.0
2018-Jun-30 07:30N 49°11' W 122°55'0 0.0
2018-Jun-30 07:00N 49°11' W 122°55'0 0.0
2018-Jun-30 06:30N 49°11' W 122°55'0 0.0
2018-Jun-30 05:57N 49°11' W 122°55'0 0.0
2018-Jun-30 05:30N 49°11' W 122°55'0 0.0
2018-Jun-30 05:00N 49°11' W 122°55'0 0.0
2018-Jun-30 04:30N 49°11' W 122°55'0 0.0
2018-Jun-30 04:00N 49°11' W 122°55'0 0.0
2018-Jun-30 03:30N 49°11' W 122°55'0 0.0
2018-Jun-30 03:00N 49°11' W 122°55'0 0.0
2018-Jun-30 02:30N 49°11' W 122°55'0 0.0
2018-Jun-30 02:00N 49°11' W 122°55'0 0.0
2018-Jun-30 01:30N 49°11' W 122°55'0 0.0
2018-Jun-30 01:00N 49°11' W 122°55'0 0.5
2018-Jun-30 00:30N 49°11' W 122°55'3 5.4
2018-Jun-30 00:00N 49°09' W 122°59'4 8.2
2018-Jun-29 23:30N 49°08' W 123°04'4 8.9
2018-Jun-29 23:00N 49°07' W 123°11'5 9.4
2018-Jun-29 22:29N 49°06' W 123°18'4 7.6
2018-Jun-29 22:00N 49°03' W 123°17'612.7
2018-Jun-29 21:30N 48°58' W 123°10'611.2
2018-Jun-29 21:00N 48°55' W 123°04'612.0
2018-Jun-29 20:31N 48°49' W 122°59'918.4
2018-Jun-29 20:00N 48°43' W 123°10'815.6
2018-Jun-29 19:31N 48°36' W 123°13'917.6
2018-Jun-29 19:01N 48°27' W 123°10'815.1
2018-Jun-29 18:30N 48°22' W 123°18'510.2
2018-Jun-29 18:00N 48°19' W 123°25'13 8.7
2018-Jun-29 16:30N 48°14' W 123°42'4 5.6
2018-Jun-29 15:51N 48°17' W 123°46'  

Dump ship's entire track history